createdAt,value
2023-07-24T00:02:03.577Z,4.40
2023-07-24T00:04:33.373Z,3.67
2023-07-24T00:07:02.224Z,3.03
2023-07-24T00:09:29.794Z,4.07
2023-07-24T00:11:57.349Z,3.10
2023-07-24T00:14:24.951Z,3.30
2023-07-24T00:16:52.546Z,3.23
2023-07-24T00:19:20.365Z,2.30
2023-07-24T00:21:49.234Z,3.30
2023-07-24T00:24:16.819Z,3.20
2023-07-24T00:26:44.454Z,4.37
2023-07-24T00:29:11.954Z,4.90
2023-07-24T00:31:39.432Z,3.13
2023-07-24T00:34:06.978Z,3.67
2023-07-24T00:36:34.484Z,3.60
2023-07-24T00:39:03.340Z,4.13
2023-07-24T00:41:30.823Z,4.70
2023-07-24T00:43:58.396Z,2.43
2023-07-24T00:46:26.567Z,2.77
2023-07-24T00:48:55.154Z,2.30
2023-07-24T00:51:22.798Z,2.37
2023-07-24T00:53:50.330Z,3.00
2023-07-24T00:56:19.242Z,3.60
2023-07-24T00:58:46.864Z,2.67
2023-07-24T01:01:14.457Z,2.83
2023-07-24T01:03:42.052Z,5.40
2023-07-24T01:06:09.587Z,3.10
2023-07-24T01:08:37.224Z,3.20
2023-07-24T01:11:11.847Z,3.30
2023-07-24T01:13:46.340Z,2.47
2023-07-24T01:16:16.642Z,3.83
2023-07-24T01:18:46.864Z,5.77
2023-07-24T01:21:18.712Z,3.30
2023-07-24T01:23:53.854Z,3.50
2023-07-24T01:26:24.866Z,3.83
2023-07-24T01:28:52.363Z,3.00
2023-07-24T01:31:19.934Z,3.17
2023-07-24T01:33:47.712Z,2.60
2023-07-24T01:36:16.290Z,3.77
2023-07-24T01:38:44.264Z,3.57
2023-07-24T01:41:12.131Z,3.13
2023-07-24T01:43:40.963Z,3.10
2023-07-24T01:46:09.623Z,2.80
2023-07-24T01:48:37.209Z,2.97
2023-07-24T01:51:05.154Z,2.90
2023-07-24T01:53:32.654Z,3.20
2023-07-24T01:56:00.322Z,3.83
2023-07-24T01:58:27.816Z,2.13
2023-07-24T02:00:58.274Z,3.13
2023-07-24T02:03:25.863Z,3.50
2023-07-24T02:05:53.620Z,3.13
2023-07-24T02:08:21.279Z,4.20
2023-07-24T02:10:50.648Z,4.20
2023-07-24T02:13:18.170Z,4.97
2023-07-24T02:15:45.662Z,3.67
2023-07-24T02:18:14.515Z,3.50
2023-07-24T02:20:42.002Z,4.57
2023-07-24T02:23:11.072Z,2.83
2023-07-24T02:25:38.568Z,2.80
2023-07-24T02:28:06.080Z,3.40
2023-07-24T02:30:33.557Z,3.33
2023-07-24T02:33:01.166Z,3.97
2023-07-24T02:35:30.034Z,2.73
2023-07-24T02:37:57.556Z,3.97
2023-07-24T02:40:25.047Z,4.87
2023-07-24T02:42:52.558Z,4.00
2023-07-24T02:45:20.275Z,7.07
2023-07-24T02:47:47.817Z,2.80
2023-07-24T02:50:15.482Z,2.93
2023-07-24T02:52:44.350Z,2.30
2023-07-24T02:55:11.944Z,2.90
2023-07-24T02:57:39.458Z,2.77
2023-07-24T03:00:09.557Z,2.70
2023-07-24T03:02:37.264Z,2.80
2023-07-24T03:05:05.304Z,3.50
2023-07-24T03:07:33.446Z,3.10
2023-07-24T03:10:02.329Z,2.97
2023-07-24T03:12:29.860Z,4.87
2023-07-24T03:14:57.359Z,4.17
2023-07-24T03:17:25.135Z,4.00
2023-07-24T03:19:52.683Z,3.20
2023-07-24T03:22:20.176Z,3.63
2023-07-24T03:24:47.803Z,3.37
2023-07-24T03:27:16.699Z,5.80
2023-07-24T03:29:44.224Z,3.10
2023-07-24T03:32:11.736Z,4.40
2023-07-24T03:34:40.214Z,5.10
2023-07-24T03:37:07.701Z,3.33
2023-07-24T03:39:35.250Z,3.30
2023-07-24T03:42:04.039Z,3.07
2023-07-24T03:44:32.983Z,4.20
2023-07-24T03:47:00.639Z,3.80
2023-07-24T03:49:28.244Z,3.77
2023-07-24T03:51:55.745Z,4.40
2023-07-24T03:54:23.268Z,4.80
2023-07-24T03:56:50.742Z,4.93
2023-07-24T03:59:18.590Z,4.90
2023-07-24T04:01:47.509Z,6.30
2023-07-24T04:04:15.061Z,3.30
2023-07-24T04:06:42.576Z,3.77
2023-07-24T04:09:11.870Z,4.10
2023-07-24T04:11:40.423Z,4.90
2023-07-24T04:14:07.903Z,4.30
2023-07-24T04:16:35.780Z,3.50
2023-07-24T04:19:05.453Z,5.00
2023-07-24T04:21:33.143Z,7.80
2023-07-24T04:24:00.680Z,4.60
2023-07-24T04:26:28.581Z,4.10
2023-07-24T04:28:56.300Z,5.73
2023-07-24T04:31:23.883Z,5.37
2023-07-24T04:33:51.472Z,3.60
2023-07-24T04:36:20.341Z,3.57
2023-07-24T04:38:48.366Z,3.47
2023-07-24T04:41:15.919Z,4.73
2023-07-24T04:43:43.589Z,3.80
2023-07-24T04:46:11.185Z,4.73
2023-07-24T04:48:38.767Z,4.63
2023-07-24T04:51:06.260Z,4.90
2023-07-24T04:53:35.090Z,3.93
2023-07-24T04:56:02.668Z,5.17
2023-07-24T04:58:30.251Z,4.57
2023-07-24T05:00:57.762Z,5.17
2023-07-24T05:03:33.597Z,5.40
2023-07-24T05:06:01.171Z,3.80
2023-07-24T05:08:28.749Z,5.10
2023-07-24T05:10:58.354Z,4.77
2023-07-24T05:13:25.891Z,4.67
2023-07-24T05:15:53.531Z,6.10
2023-07-24T05:18:21.209Z,8.13
2023-07-24T05:20:52.156Z,4.73
2023-07-24T05:23:19.736Z,5.90
2023-07-24T05:25:47.311Z,6.97
2023-07-24T05:28:16.159Z,7.57
2023-07-24T05:30:43.708Z,8.80
2023-07-24T05:33:11.251Z,8.20
2023-07-24T05:35:38.758Z,5.73
2023-07-24T05:38:06.258Z,10.80
2023-07-24T05:40:33.829Z,6.90
2023-07-24T05:43:01.389Z,6.07
2023-07-24T05:45:30.216Z,5.60
2023-07-24T05:47:57.769Z,6.00
2023-07-24T05:50:25.324Z,6.33
2023-07-24T05:52:52.839Z,10.10
2023-07-24T05:55:20.323Z,6.40
2023-07-24T05:57:47.841Z,8.70
2023-07-24T06:00:15.776Z,9.37
2023-07-24T06:02:44.731Z,5.20
2023-07-24T06:05:12.420Z,6.90
2023-07-24T06:07:39.960Z,5.47
2023-07-24T06:10:08.543Z,8.50
2023-07-24T06:12:36.157Z,5.60
2023-07-24T06:15:04.363Z,5.87
2023-07-24T06:17:31.949Z,6.60
2023-07-24T06:20:01.086Z,6.83
2023-07-24T06:22:28.654Z,7.73
2023-07-24T06:24:56.178Z,7.37
2023-07-24T06:27:23.743Z,8.83
2023-07-24T06:29:53.366Z,7.47
2023-07-24T06:32:23.356Z,5.67
2023-07-24T06:34:50.921Z,7.83
2023-07-24T06:37:23.159Z,5.90
2023-07-24T06:39:50.981Z,6.43
2023-07-24T06:42:18.490Z,5.83
2023-07-24T06:44:46.021Z,4.77
2023-07-24T06:47:13.513Z,4.97
2023-07-24T06:49:41.083Z,6.73
2023-07-24T06:52:08.955Z,4.80
2023-07-24T06:54:37.842Z,10.50
2023-07-24T06:57:05.724Z,11.53
2023-07-24T06:59:33.282Z,6.50
2023-07-24T07:02:00.873Z,7.87
2023-07-24T07:04:28.393Z,5.83
2023-07-24T07:06:56.192Z,4.07
2023-07-24T07:09:23.693Z,6.90
2023-07-24T07:11:52.574Z,7.30
2023-07-24T07:14:20.079Z,5.70
2023-07-24T07:16:48.664Z,6.80
2023-07-24T07:19:16.265Z,5.13
2023-07-24T07:21:43.787Z,6.43
2023-07-24T07:24:11.294Z,5.70
2023-07-24T07:26:38.839Z,3.97
2023-07-24T07:29:07.703Z,3.90
2023-07-24T07:31:35.292Z,5.30
2023-07-24T07:34:02.816Z,5.30
2023-07-24T07:36:30.682Z,6.13
2023-07-24T07:38:58.382Z,3.90
2023-07-24T07:41:25.939Z,5.47
2023-07-24T07:43:53.448Z,6.30
2023-07-24T07:46:22.348Z,3.43
2023-07-24T07:48:50.289Z,3.93
2023-07-24T07:51:17.894Z,3.27
2023-07-24T07:53:45.444Z,4.40
2023-07-24T07:56:12.986Z,4.30
2023-07-24T07:58:40.508Z,3.13
2023-07-24T08:01:08.565Z,3.17
2023-07-24T08:03:37.763Z,4.20
2023-07-24T08:06:05.304Z,4.07
2023-07-24T08:08:32.931Z,4.00
2023-07-24T08:11:00.428Z,3.03
2023-07-24T08:13:27.957Z,2.83
2023-07-24T08:15:55.475Z,5.37
2023-07-24T08:18:23.066Z,4.60
2023-07-24T08:20:51.892Z,3.43
2023-07-24T08:23:19.404Z,5.10
2023-07-24T08:25:53.546Z,8.23
2023-07-24T08:28:21.199Z,4.83
2023-07-24T08:30:57.619Z,3.47
2023-07-24T08:33:25.258Z,3.47
2023-07-24T08:36:02.661Z,3.30
2023-07-24T08:38:30.310Z,3.30
2023-07-24T08:41:05.885Z,2.60
2023-07-24T08:43:34.054Z,4.00
2023-07-24T08:46:02.863Z,5.33
2023-07-24T08:48:34.294Z,8.03
2023-07-24T08:51:03.949Z,4.57
2023-07-24T08:53:32.285Z,3.43
2023-07-24T08:56:02.701Z,5.40
2023-07-24T08:58:30.359Z,4.17
2023-07-24T09:00:59.104Z,3.80
2023-07-24T09:03:27.228Z,5.80
2023-07-24T09:05:54.947Z,2.87
2023-07-24T09:08:32.364Z,3.63
2023-07-24T09:11:00.188Z,3.30
2023-07-24T09:13:27.868Z,3.13
2023-07-24T09:15:55.985Z,3.13
2023-07-24T09:18:23.836Z,4.90
2023-07-24T09:20:53.048Z,2.90
2023-07-24T09:23:28.801Z,6.20
2023-07-24T09:25:57.774Z,4.83
2023-07-24T09:28:25.359Z,3.57
2023-07-24T09:30:54.944Z,3.10
2023-07-24T09:33:22.884Z,2.43
2023-07-24T09:35:59.987Z,3.33
2023-07-24T09:38:27.556Z,2.53
2023-07-24T09:40:57.911Z,3.10
2023-07-24T09:43:39.048Z,3.70
2023-07-24T09:46:08.904Z,4.07
2023-07-24T09:48:43.630Z,3.97
2023-07-24T09:51:27.235Z,3.20
2023-07-24T09:53:58.359Z,4.30
2023-07-24T09:56:38.956Z,4.67
2023-07-24T09:59:15.625Z,4.00
2023-07-24T10:01:44.146Z,6.17
2023-07-24T10:04:12.272Z,4.73
2023-07-24T10:06:40.065Z,3.90
2023-07-24T10:09:09.130Z,4.33
2023-07-24T10:11:38.014Z,4.80
2023-07-24T10:14:06.028Z,5.00
2023-07-24T10:16:34.728Z,3.93
2023-07-24T10:19:02.303Z,4.60
2023-07-24T10:21:30.415Z,4.73
2023-07-24T10:24:01.931Z,3.73
2023-07-24T10:26:29.537Z,7.70
2023-07-24T10:28:59.053Z,3.57
2023-07-24T10:31:28.982Z,6.20
2023-07-24T10:33:58.091Z,6.07
2023-07-24T10:36:25.641Z,4.13
2023-07-24T10:38:55.254Z,3.40
2023-07-24T10:41:23.086Z,4.70
2023-07-24T10:43:52.088Z,4.73
2023-07-24T10:46:22.701Z,3.50
2023-07-24T10:48:52.895Z,4.57
2023-07-24T10:51:20.529Z,3.90
2023-07-24T10:53:50.141Z,5.00
2023-07-24T10:56:18.838Z,3.70
2023-07-24T10:58:46.382Z,3.20
2023-07-24T11:01:15.242Z,3.50
2023-07-24T11:03:44.602Z,5.40
2023-07-24T11:06:15.957Z,3.50
2023-07-24T11:08:44.040Z,3.70
2023-07-24T11:11:13.190Z,4.63
2023-07-24T11:13:40.711Z,3.53
2023-07-24T11:16:09.920Z,4.00
2023-07-24T11:18:54.016Z,3.80
2023-07-24T11:21:22.524Z,5.20
2023-07-24T11:23:51.248Z,2.97
2023-07-24T11:26:21.185Z,4.33
2023-07-24T11:28:48.740Z,4.47
2023-07-24T11:31:17.025Z,3.97
2023-07-24T11:33:46.707Z,5.53
2023-07-24T11:36:14.759Z,4.90
2023-07-24T11:38:43.098Z,5.80
2023-07-24T11:41:11.075Z,5.23
2023-07-24T11:43:47.604Z,5.10
2023-07-24T11:46:24.922Z,3.53
2023-07-24T11:48:56.756Z,3.63
2023-07-24T11:51:25.533Z,3.30
2023-07-24T11:53:53.291Z,4.33
2023-07-24T11:56:23.008Z,4.40
2023-07-24T11:58:50.556Z,5.60
2023-07-24T12:01:18.104Z,3.80
2023-07-24T12:03:45.794Z,3.93
2023-07-24T12:06:17.951Z,4.33
2023-07-24T12:08:46.416Z,6.10
2023-07-24T12:11:20.605Z,4.10
2023-07-24T12:13:48.168Z,4.13
2023-07-24T12:16:15.775Z,5.30
2023-07-24T12:18:43.305Z,3.73
2023-07-24T12:21:10.826Z,4.90
2023-07-24T12:23:40.948Z,4.40
2023-07-24T12:26:08.606Z,5.07
2023-07-24T12:28:36.179Z,3.97
2023-07-24T12:31:04.672Z,3.50
2023-07-24T12:33:32.379Z,4.20
2023-07-24T12:35:59.941Z,6.27
2023-07-24T12:38:27.488Z,3.43
2023-07-24T12:40:56.372Z,3.50
2023-07-24T12:43:23.975Z,4.20
2023-07-24T12:45:51.606Z,5.63
2023-07-24T12:48:19.122Z,4.03
2023-07-24T12:50:46.681Z,3.37
2023-07-24T12:53:15.811Z,4.90
2023-07-24T12:55:49.267Z,4.33
2023-07-24T12:58:18.211Z,4.27
2023-07-24T13:00:45.825Z,4.53
2023-07-24T13:03:13.458Z,7.50
2023-07-24T13:05:41.337Z,5.70
2023-07-24T13:08:08.929Z,3.10
2023-07-24T13:10:36.504Z,3.30
2023-07-24T13:13:04.140Z,3.73
2023-07-24T13:15:33.297Z,3.80
2023-07-24T13:18:07.679Z,4.33
2023-07-24T13:20:45.555Z,6.27
2023-07-24T13:23:13.224Z,4.70
2023-07-24T13:25:40.761Z,4.97
2023-07-24T13:28:08.291Z,6.27
2023-07-24T13:30:37.169Z,6.57
2023-07-24T13:33:04.858Z,3.13
2023-07-24T13:35:32.428Z,3.20
2023-07-24T13:38:00.024Z,4.63
2023-07-24T13:40:27.523Z,3.93
2023-07-24T13:42:55.027Z,3.60
2023-07-24T13:45:22.538Z,4.60
2023-07-24T13:47:51.459Z,3.60
2023-07-24T13:50:19.134Z,5.23
2023-07-24T13:52:46.741Z,4.77
2023-07-24T13:55:15.117Z,4.30
2023-07-24T13:57:42.907Z,9.77
2023-07-24T14:00:11.393Z,9.47
2023-07-24T14:02:39.069Z,6.17
2023-07-24T14:05:09.916Z,4.77
2023-07-24T14:07:37.401Z,5.80
2023-07-24T14:10:05.334Z,7.17
2023-07-24T14:12:32.873Z,4.40
2023-07-24T14:15:00.448Z,4.33
2023-07-24T14:17:27.967Z,5.03
2023-07-24T14:19:55.545Z,5.43
2023-07-24T14:22:26.728Z,5.40
2023-07-24T14:24:55.981Z,6.00
2023-07-24T14:27:23.531Z,5.33
2023-07-24T14:29:51.087Z,5.17
2023-07-24T14:32:18.630Z,7.87
2023-07-24T14:34:46.135Z,4.77
2023-07-24T14:37:13.695Z,5.43
2023-07-24T14:39:42.962Z,4.20
2023-07-24T14:42:10.499Z,5.10
2023-07-24T14:44:38.065Z,3.80
2023-07-24T14:47:06.205Z,3.53
2023-07-24T14:49:33.725Z,3.90
2023-07-24T14:52:01.254Z,2.90
2023-07-24T14:54:28.768Z,3.30
2023-07-24T14:57:04.615Z,3.53
2023-07-24T14:59:38.174Z,3.20
2023-07-24T15:02:06.212Z,4.37
2023-07-24T15:04:33.744Z,3.00
2023-07-24T15:07:01.311Z,3.20
2023-07-24T15:09:28.872Z,3.00
2023-07-24T15:11:58.964Z,3.40
2023-07-24T15:14:27.024Z,3.63
2023-07-24T15:16:54.538Z,3.13
2023-07-24T15:19:22.054Z,3.17
2023-07-24T15:21:49.593Z,3.10
2023-07-24T15:24:18.934Z,5.20
2023-07-24T15:26:47.168Z,2.20
2023-07-24T15:29:19.405Z,5.10
2023-07-24T15:31:47.559Z,4.77
2023-07-24T15:34:15.131Z,7.13
2023-07-24T15:36:42.712Z,3.70
2023-07-24T15:39:10.231Z,6.47
2023-07-24T15:41:37.729Z,2.77
2023-07-24T15:44:05.539Z,4.00
2023-07-24T15:46:34.595Z,1.47
2023-07-24T15:49:02.289Z,2.60
2023-07-24T15:51:31.064Z,1.83
2023-07-24T15:53:59.478Z,1.87
2023-07-24T15:56:29.951Z,1.40
2023-07-24T15:58:57.482Z,1.80
2023-07-24T16:01:26.609Z,1.73
2023-07-24T16:03:58.384Z,1.77
2023-07-24T16:06:25.979Z,1.80
2023-07-24T16:08:53.634Z,2.90
2023-07-24T16:11:21.158Z,1.83
2023-07-24T16:13:48.683Z,1.80
2023-07-24T16:16:16.188Z,1.90
2023-07-24T16:18:43.862Z,2.07
2023-07-24T16:21:12.808Z,3.17
2023-07-24T16:23:40.374Z,4.00
2023-07-24T16:26:07.956Z,3.50
2023-07-24T16:28:35.524Z,2.83
2023-07-24T16:31:03.117Z,1.80
2023-07-24T16:33:31.337Z,2.80
2023-07-24T16:36:01.556Z,2.27
2023-07-24T16:38:30.480Z,1.27
2023-07-24T16:40:58.433Z,1.70
2023-07-24T16:43:25.974Z,1.60
2023-07-24T16:48:27.162Z,0.93
2023-07-24T16:50:55.045Z,1.40
2023-07-24T16:53:22.614Z,2.57
2023-07-24T16:55:51.946Z,1.60
2023-07-24T16:58:22.322Z,3.03
2023-07-24T17:00:50.050Z,3.40
2023-07-24T17:03:17.604Z,1.40
2023-07-24T17:05:45.187Z,1.10
2023-07-24T17:08:13.286Z,1.20
2023-07-24T17:10:45.011Z,1.77
2023-07-24T17:13:14.109Z,1.90
2023-07-24T17:15:41.990Z,2.30
2023-07-24T17:18:09.592Z,1.40
2023-07-24T17:20:39.089Z,2.47
2023-07-24T17:23:06.652Z,2.43
2023-07-24T17:25:34.326Z,1.70
2023-07-24T17:28:01.872Z,1.53
2023-07-24T17:30:30.896Z,2.00
2023-07-24T17:32:59.336Z,1.57
2023-07-24T17:35:27.000Z,1.60
2023-07-24T17:37:54.520Z,3.03
2023-07-24T17:40:22.390Z,1.80
2023-07-24T17:42:50.196Z,2.40
2023-07-24T17:45:18.963Z,2.20
2023-07-24T17:47:47.886Z,1.83
2023-07-24T17:50:15.430Z,2.53
2023-07-24T17:52:42.992Z,3.60
2023-07-24T17:55:10.564Z,2.00
2023-07-24T17:57:38.108Z,2.73
2023-07-24T18:00:07.139Z,1.70
2023-07-24T18:02:34.748Z,2.30
2023-07-24T18:05:03.720Z,2.73
2023-07-24T18:07:31.268Z,2.50
2023-07-24T18:09:58.775Z,2.23
2023-07-24T18:12:26.881Z,1.67
2023-07-24T18:14:54.531Z,1.80
2023-07-24T18:17:22.247Z,1.73
2023-07-24T18:19:49.811Z,4.20
2023-07-24T18:22:20.212Z,2.00
2023-07-24T18:24:47.878Z,2.43
2023-07-24T18:27:15.512Z,1.73
2023-07-24T18:29:43.127Z,1.20
2023-07-24T18:32:10.857Z,1.10
2023-07-24T18:34:38.409Z,1.33
2023-07-24T18:37:07.408Z,1.13
2023-07-24T18:39:36.398Z,1.73
2023-07-24T18:42:04.918Z,1.80
2023-07-24T18:44:33.964Z,1.13
2023-07-24T18:47:01.517Z,1.00
2023-07-24T18:49:29.083Z,1.20
2023-07-24T18:51:56.678Z,1.43
2023-07-24T18:54:24.352Z,1.60
2023-07-24T18:56:53.341Z,1.23
2023-07-24T18:59:20.921Z,1.03
2023-07-24T19:01:49.100Z,0.93
2023-07-24T19:04:16.679Z,1.07
2023-07-24T19:06:44.298Z,3.27
2023-07-24T19:09:11.857Z,1.73
2023-07-24T19:11:39.392Z,1.17
2023-07-24T19:14:08.290Z,1.50
2023-07-24T19:16:36.336Z,1.53
2023-07-24T19:19:06.527Z,1.20
2023-07-24T19:21:34.049Z,1.40
2023-07-24T19:24:01.612Z,1.43
2023-07-24T19:26:29.313Z,1.90
2023-07-24T19:28:56.984Z,1.60
2023-07-24T19:31:25.980Z,1.60
2023-07-24T19:33:53.547Z,1.10
2023-07-24T19:36:21.242Z,3.10
2023-07-24T19:38:48.748Z,1.20
2023-07-24T19:41:16.255Z,1.10
2023-07-24T19:43:43.824Z,1.07
2023-07-24T19:46:11.769Z,1.37
2023-07-24T19:48:40.905Z,1.00
2023-07-24T19:51:08.460Z,1.67
2023-07-24T19:53:36.186Z,1.97
2023-07-24T19:56:03.747Z,1.20
2023-07-24T19:58:34.156Z,1.37
2023-07-24T20:01:02.437Z,0.90
2023-07-24T20:03:30.286Z,1.73
2023-07-24T20:06:02.702Z,1.87
2023-07-24T20:08:33.566Z,2.83
2023-07-24T20:11:03.629Z,1.57
2023-07-24T20:13:31.228Z,1.57
2023-07-24T20:15:59.584Z,1.57
2023-07-24T20:18:27.231Z,1.17
2023-07-24T20:20:56.119Z,1.67
2023-07-24T20:23:25.120Z,1.70
2023-07-24T20:25:52.843Z,1.03
2023-07-24T20:28:21.686Z,1.30
2023-07-24T20:30:49.403Z,1.67
2023-07-24T20:33:17.467Z,1.43
2023-07-24T20:35:50.540Z,1.20
2023-07-24T20:38:27.698Z,1.30
2023-07-24T20:40:55.875Z,1.50
2023-07-24T20:43:23.596Z,1.23
2023-07-24T20:45:52.675Z,1.50
2023-07-24T20:48:21.327Z,1.10
2023-07-24T20:50:48.980Z,1.40
2023-07-24T20:53:16.688Z,1.10
2023-07-24T20:55:45.541Z,1.53
2023-07-24T20:58:13.043Z,1.90
2023-07-24T21:00:40.659Z,1.63
2023-07-24T21:03:08.324Z,1.83
2023-07-24T21:05:38.233Z,1.20
2023-07-24T21:08:06.143Z,1.23
2023-07-24T21:10:33.696Z,2.10
2023-07-24T21:13:02.652Z,1.50
2023-07-24T21:15:30.244Z,2.83
2023-07-24T21:17:57.810Z,1.83
2023-07-24T21:20:25.410Z,1.50
2023-07-24T21:22:52.997Z,1.47
2023-07-24T21:25:20.643Z,1.57
2023-07-24T21:27:48.163Z,1.53
2023-07-24T21:30:17.078Z,1.80
2023-07-24T21:32:44.632Z,1.50
2023-07-24T21:35:11.303Z,1.20
2023-07-24T21:37:40.098Z,1.47
2023-07-24T21:40:09.057Z,1.50
2023-07-24T21:42:36.809Z,1.77
2023-07-24T21:45:04.865Z,1.57
2023-07-24T21:47:33.729Z,1.40
2023-07-24T21:50:01.289Z,1.40
2023-07-24T21:52:28.890Z,2.27
2023-07-24T21:54:56.387Z,1.43
2023-07-24T21:57:23.960Z,1.67
2023-07-24T21:59:51.475Z,1.33
2023-07-24T22:02:19.048Z,1.60
2023-07-24T22:04:47.944Z,1.10
2023-07-24T22:07:15.460Z,1.63
2023-07-24T22:09:43.015Z,1.20
2023-07-24T22:12:10.707Z,1.20
2023-07-24T22:14:38.233Z,4.23
2023-07-24T22:17:06.812Z,1.40
2023-07-24T22:19:34.444Z,2.60
2023-07-24T22:22:03.853Z,2.03
2023-07-24T22:24:33.776Z,1.23
2023-07-24T22:27:01.303Z,1.27
2023-07-24T22:29:31.892Z,1.20
2023-07-24T22:32:02.899Z,1.63
2023-07-24T22:34:30.416Z,2.03
2023-07-24T22:36:57.939Z,1.57
2023-07-24T22:39:26.817Z,2.27
2023-07-24T22:41:54.352Z,1.70
2023-07-24T22:44:21.868Z,1.47
2023-07-24T22:46:49.697Z,1.30
2023-07-24T22:49:17.295Z,1.40
2023-07-24T22:51:44.877Z,1.90
2023-07-24T22:54:12.417Z,2.93
2023-07-24T22:56:43.077Z,1.30
2023-07-24T22:59:22.514Z,1.47
2023-07-24T23:01:51.550Z,1.33
2023-07-24T23:04:20.387Z,1.57
2023-07-24T23:06:47.904Z,2.70
2023-07-24T23:09:15.486Z,1.93
2023-07-24T23:11:44.379Z,5.00
2023-07-24T23:14:11.962Z,5.47
2023-07-24T23:16:39.466Z,4.87
2023-07-24T23:19:07.037Z,3.87
2023-07-24T23:21:34.791Z,4.37
2023-07-24T23:24:02.404Z,6.10
2023-07-24T23:26:29.938Z,3.07
2023-07-24T23:28:59.531Z,3.10
2023-07-24T23:31:27.189Z,3.33
2023-07-24T23:33:55.439Z,5.83
2023-07-24T23:36:32.142Z,3.37
2023-07-24T23:38:59.722Z,2.30
2023-07-24T23:41:27.800Z,2.60
2023-07-24T23:43:55.597Z,5.50
2023-07-24T23:46:24.737Z,2.20
2023-07-24T23:48:52.388Z,1.50
2023-07-24T23:51:21.160Z,1.73
2023-07-24T23:53:49.470Z,1.30
2023-07-24T23:56:19.091Z,1.10
2023-07-24T23:58:46.682Z,1.30
